Kansas City, Missouri
Traffic Map
Current Weather Conditions
Kansas City, Missouri
Overcast Haze
Overcast
72°
Feels Like: 72°
Wind Chill: 72° Ceiling: 300
Heat Index: 72° Visibility: 3mi
Dew Point: 69° Wind: 3mph
Humidity: 91% Direction: 350° (N)
Pressure: 29.98in Gusts: 0mph
Raw Report DataKMKC 021436Z 35003KT 3SM BR OVC003 22/21 A2998 RMK AO2 CIG 001V006 T02220206
Traffic Incident Summary
Active as of:
Severity:
Category:
InformationThere was an issue retrieving the traffic information for this location. Please try a different location or try again shortly.
Advertisements
Track Severe Weather on mobile